ESOE/ORB METAR and TAF weather

Enter ICAO airport designator
Station Type Date Time Source
ESOE METAR 2021/01/17 19:20 UTC NOAA

ESOE 171920Z AUTO 19004KT 9999 FEW009/// SCT017/// BKN021/// M02/M02 Q1018


Station Type Date Time Source
ESOE Decoded METAR 2021/01/17 19:20 UTC NOAA

Orebro Private , Sweden (ESOE) 59-14N 015-03E
Jan 17, 2021 - 02:20 PM EST / 2021.01.17 1920 UTC
Wind: from the S (190 degrees) at 5 MPH (4 KT):0
Visibility: greater than 7 mile(s):0
Sky conditions: mostly cloudy
Temperature: 28 F (-2 C)
Windchill: 23 F (-5 C):1
Dew Point: 28 F (-2 C)
Relative Humidity: 100%
Pressure (altimeter): 30.06 in. Hg (1018 hPa)
ob: ESOE 171920Z AUTO 19004KT 9999 FEW009/// SCT017/// BKN021/// M02/M02 Q1018
cycle: 19

Station Type Date Time Source
ESOE TAF 2016/03/16 04:36 UTC NOAA

TAF TAF ESOE 160330Z 1604/1624 23005KT 9000 BR NSC PROB40 1604/1607 1200 BR

Example: see airport list